createdAt,value
2022-09-06T00:01:55.478Z,1.00
2022-09-06T00:04:21.976Z,1.10
2022-09-06T00:06:48.550Z,1.00
2022-09-06T00:09:15.032Z,1.10
2022-09-06T00:11:41.545Z,1.10
2022-09-06T00:14:08.058Z,1.10
2022-09-06T00:16:35.041Z,1.17
2022-09-06T00:19:04.513Z,0.90
2022-09-06T00:21:31.590Z,1.15
2022-09-06T00:23:58.043Z,1.20
2022-09-06T00:26:24.694Z,1.08
2022-09-06T00:28:51.263Z,0.47
2022-09-06T00:31:23.463Z,1.02
2022-09-06T00:33:50.691Z,1.30
2022-09-06T00:36:18.505Z,0.90
2022-09-06T00:38:45.577Z,1.13
2022-09-06T00:41:14.166Z,1.02
2022-09-06T00:43:41.807Z,1.00
2022-09-06T00:46:10.877Z,0.60
2022-09-06T00:48:39.182Z,0.90
2022-09-06T00:51:10.879Z,0.90
2022-09-06T00:53:37.436Z,0.80
2022-09-06T00:56:04.579Z,0.85
2022-09-06T00:58:31.179Z,0.80
2022-09-06T01:00:57.685Z,0.90
2022-09-06T01:03:25.606Z,0.93
2022-09-06T01:06:20.297Z,0.80
2022-09-06T01:09:09.224Z,0.73
2022-09-06T01:11:58.793Z,1.00
2022-09-06T01:14:40.622Z,0.80
2022-09-06T01:17:52.053Z,0.95
2022-09-06T01:20:48.573Z,0.70
2022-09-06T01:23:51.636Z,0.82
2022-09-06T01:26:42.516Z,1.25
2022-09-06T01:29:23.823Z,0.70
2022-09-06T01:32:00.726Z,0.60
2022-09-06T01:34:42.746Z,0.88
2022-09-06T01:37:13.747Z,0.70
2022-09-06T01:39:41.807Z,1.23
2022-09-06T01:42:13.834Z,0.60
2022-09-06T01:44:45.557Z,0.70
2022-09-06T01:47:26.154Z,1.00
2022-09-06T01:50:09.262Z,0.90
2022-09-06T01:52:57.125Z,1.05
2022-09-06T01:55:44.291Z,0.93
2022-09-06T01:58:19.166Z,1.38
2022-09-06T02:01:12.172Z,0.80
2022-09-06T02:04:03.527Z,0.90
2022-09-06T02:06:37.350Z,1.00
2022-09-06T02:09:11.536Z,0.88
2022-09-06T02:11:44.234Z,0.85
2022-09-06T02:14:17.782Z,1.00
2022-09-06T02:16:47.731Z,1.00
2022-09-06T02:19:20.212Z,0.60
2022-09-06T02:21:47.812Z,1.00
2022-09-06T02:24:21.670Z,1.80
2022-09-06T02:26:48.615Z,0.63
2022-09-06T02:29:16.686Z,0.85
2022-09-06T02:31:47.470Z,1.00
2022-09-06T02:34:17.119Z,0.88
2022-09-06T02:36:43.830Z,1.27
2022-09-06T02:39:10.527Z,1.35
2022-09-06T02:41:37.879Z,0.77
2022-09-06T02:44:04.322Z,0.60
2022-09-06T02:46:30.894Z,1.17
2022-09-06T02:48:57.905Z,1.17
2022-09-06T02:51:24.353Z,0.85
2022-09-06T02:53:50.878Z,0.77
2022-09-06T02:56:17.388Z,1.13
2022-09-06T02:58:44.019Z,0.85
2022-09-06T03:01:10.625Z,1.60
2022-09-06T03:03:37.202Z,1.35
2022-09-06T03:06:03.749Z,1.60
2022-09-06T03:08:33.612Z,1.70
2022-09-06T03:11:03.930Z,1.73
2022-09-06T03:13:30.443Z,1.95
2022-09-06T03:15:59.051Z,1.75
2022-09-06T03:18:27.479Z,1.50
2022-09-06T03:20:55.786Z,1.65
2022-09-06T03:23:25.995Z,1.30
2022-09-06T03:25:53.029Z,0.95
2022-09-06T03:28:21.040Z,0.85
2022-09-06T03:30:49.371Z,1.02
2022-09-06T03:33:16.405Z,1.13
2022-09-06T03:35:55.255Z,1.30
2022-09-06T03:38:22.293Z,0.85
2022-09-06T03:40:49.494Z,1.50
2022-09-06T03:43:17.522Z,1.30
2022-09-06T03:45:52.837Z,1.08
2022-09-06T03:48:20.906Z,1.20
2022-09-06T03:50:51.190Z,0.75
2022-09-06T03:53:19.213Z,1.00
2022-09-06T03:55:47.556Z,1.02
2022-09-06T03:58:16.013Z,1.15
2022-09-06T04:00:43.351Z,0.93
2022-09-06T04:03:11.513Z,0.98
2022-09-06T04:05:38.371Z,1.40
2022-09-06T04:10:34.014Z,1.02
2022-09-06T04:13:03.779Z,0.90
2022-09-06T04:15:41.007Z,0.90
2022-09-06T04:21:05.698Z,1.23
2022-09-06T04:23:40.092Z,1.23
2022-09-06T04:27:06.823Z,0.90
2022-09-06T04:29:52.499Z,0.93
2022-09-06T04:32:26.597Z,1.02
2022-09-06T04:35:04.070Z,1.13
2022-09-06T04:37:30.630Z,1.17
2022-09-06T04:39:57.573Z,1.15
2022-09-06T04:42:24.265Z,1.20
2022-09-06T04:44:50.814Z,0.90
2022-09-06T04:47:20.763Z,0.88
2022-09-06T04:49:49.571Z,1.33
2022-09-06T04:52:19.989Z,1.00
2022-09-06T04:54:46.492Z,1.10
2022-09-06T04:57:13.099Z,1.08
2022-09-06T04:59:39.698Z,1.10
2022-09-06T05:02:06.258Z,1.15
2022-09-06T05:04:35.928Z,0.80
2022-09-06T05:07:05.130Z,1.20
2022-09-06T05:09:33.060Z,0.90
2022-09-06T05:12:01.081Z,1.10
2022-09-06T05:14:28.701Z,1.05
2022-09-06T05:16:56.080Z,1.08
2022-09-06T05:19:22.823Z,1.38
2022-09-06T05:22:01.067Z,1.25
2022-09-06T05:24:39.288Z,1.00
2022-09-06T05:27:07.527Z,1.52
2022-09-06T05:32:37.877Z,0.90
2022-09-06T05:35:04.870Z,1.20
2022-09-06T05:37:31.483Z,1.00
2022-09-06T05:40:00.521Z,1.10
2022-09-06T05:42:30.146Z,0.90
2022-09-06T05:44:59.786Z,1.25
2022-09-06T06:24:36.715Z,0.82
2022-09-06T06:29:38.193Z,1.02
2022-09-06T06:44:22.086Z,1.02
2022-09-06T10:52:11.560Z,1.95
2022-09-06T12:01:04.516Z,1.85
2022-09-06T12:04:10.612Z,1.55
2022-09-06T12:18:45.756Z,2.47
2022-09-06T12:36:49.179Z,2.60
2022-09-06T12:46:49.400Z,2.50
2022-09-06T12:49:19.880Z,2.35
2022-09-06T12:52:05.501Z,2.70
2022-09-06T13:15:13.970Z,2.65
2022-09-06T13:30:34.727Z,2.63
2022-09-06T13:37:26.067Z,3.13
2022-09-06T13:38:30.562Z,2.30
2022-09-06T13:47:23.750Z,2.67
2022-09-06T13:50:38.004Z,3.25
2022-09-06T13:53:55.062Z,2.95
2022-09-06T13:56:23.960Z,3.55
2022-09-06T14:06:31.466Z,2.67
2022-09-06T14:09:08.208Z,3.00
2022-09-06T14:11:35.988Z,3.05
2022-09-06T14:14:02.860Z,3.22
2022-09-06T14:16:29.954Z,3.38
2022-09-06T14:18:56.492Z,3.50
2022-09-06T14:21:25.560Z,2.97
2022-09-06T14:24:04.149Z,3.45
2022-09-06T14:26:50.496Z,3.70
2022-09-06T14:29:19.967Z,3.65
2022-09-06T14:31:52.939Z,3.10
2022-09-06T14:34:19.533Z,3.25
2022-09-06T14:39:15.360Z,4.00
2022-09-06T14:41:42.049Z,3.10
2022-09-06T14:46:36.164Z,3.00
2022-09-06T14:49:10.028Z,3.22
2022-09-06T14:52:00.264Z,3.15
2022-09-06T14:54:29.310Z,3.00
2022-09-06T14:56:56.560Z,3.72
2022-09-06T14:59:23.306Z,3.50
2022-09-06T15:01:49.855Z,3.60
2022-09-06T15:06:47.824Z,3.50
2022-09-06T15:09:16.331Z,3.97
2022-09-06T15:11:45.908Z,3.20
2022-09-06T15:14:14.427Z,3.22
2022-09-06T15:16:41.260Z,3.03
2022-09-06T15:19:10.500Z,3.13
2022-09-06T15:21:40.257Z,3.22
2022-09-06T15:24:11.590Z,3.38
2022-09-06T15:26:51.236Z,3.05
2022-09-06T15:29:18.295Z,3.38
2022-09-06T15:31:50.449Z,2.70
2022-09-06T15:34:22.276Z,3.40
2022-09-06T15:36:49.332Z,3.65
2022-09-06T15:39:16.151Z,3.10
2022-09-06T15:41:56.647Z,3.80
2022-09-06T15:44:23.192Z,3.05
2022-09-06T15:46:58.138Z,3.72
2022-09-06T15:49:32.447Z,3.17
2022-09-06T15:52:01.399Z,3.10
2022-09-06T15:54:47.743Z,3.17
2022-09-06T15:57:16.418Z,3.40
2022-09-06T15:59:43.238Z,3.28
2022-09-06T16:04:37.015Z,3.10
2022-09-06T16:07:04.262Z,3.30
2022-09-06T16:09:31.886Z,2.88
2022-09-06T16:11:59.185Z,3.85
2022-09-06T16:14:25.995Z,2.75
2022-09-06T16:16:54.891Z,2.88
2022-09-06T16:19:21.673Z,3.08
2022-09-06T16:24:19.357Z,2.88
2022-09-06T16:26:46.776Z,2.97
2022-09-06T16:29:20.028Z,2.80
2022-09-06T16:31:48.171Z,2.60
2022-09-06T16:34:15.212Z,2.75
2022-09-06T16:36:42.344Z,3.42
2022-09-06T16:39:18.164Z,2.75
2022-09-06T16:41:48.171Z,3.00
2022-09-06T16:44:18.837Z,2.80
2022-09-06T16:46:50.223Z,2.60
2022-09-06T16:49:19.453Z,2.92
2022-09-06T16:51:47.519Z,2.80
2022-09-06T16:54:15.672Z,2.55
2022-09-06T16:56:43.062Z,2.55
2022-09-06T16:59:11.344Z,2.58
2022-09-06T17:01:41.991Z,2.95
2022-09-06T17:04:09.792Z,2.70
2022-09-06T17:06:44.262Z,2.80
2022-09-06T17:09:23.514Z,2.28
2022-09-06T17:11:50.451Z,2.47
2022-09-06T17:14:20.795Z,2.33
2022-09-06T17:17:05.649Z,2.72
2022-09-06T17:19:43.492Z,2.60
2022-09-06T17:22:12.671Z,2.60
2022-09-06T17:24:44.016Z,2.97
2022-09-06T17:27:48.025Z,2.40
2022-09-06T17:31:25.867Z,2.50
2022-09-06T17:33:53.432Z,2.70
2022-09-06T17:36:27.867Z,2.75
2022-09-06T17:39:06.839Z,2.47
2022-09-06T17:41:37.141Z,2.50
2022-09-06T17:44:05.848Z,2.40
2022-09-06T17:46:35.421Z,2.30
2022-09-06T17:49:02.273Z,2.50
2022-09-06T17:51:28.965Z,2.10
2022-09-06T17:53:55.634Z,2.65
2022-09-06T17:59:20.049Z,2.42
2022-09-06T18:01:59.510Z,1.98
2022-09-06T18:04:46.730Z,2.45
2022-09-06T18:07:13.746Z,2.80
2022-09-06T18:09:41.612Z,2.25
2022-09-06T18:12:14.728Z,2.58
2022-09-06T18:14:41.540Z,2.25
2022-09-06T21:36:13.747Z,2.05
2022-09-06T21:38:43.800Z,2.00
2022-09-06T21:41:11.191Z,2.10
2022-09-06T21:43:37.861Z,1.83
2022-09-06T21:46:06.458Z,2.55
2022-09-06T21:48:55.211Z,1.95
2022-09-06T21:51:27.010Z,1.85
2022-09-06T21:53:54.222Z,1.90
2022-09-06T21:56:20.727Z,2.22
2022-09-06T21:58:51.270Z,1.60
2022-09-06T22:01:17.916Z,1.90
2022-09-06T22:03:45.670Z,1.70
2022-09-06T22:06:21.006Z,1.98
2022-09-06T22:08:48.611Z,1.70
2022-09-06T22:11:18.772Z,2.00
2022-09-06T22:13:49.111Z,1.52
2022-09-06T22:16:18.752Z,2.13
2022-09-06T22:18:46.026Z,2.13
2022-09-06T22:21:18.530Z,2.58
2022-09-06T22:24:10.082Z,1.75
2022-09-06T22:26:38.514Z,2.03
2022-09-06T22:29:07.553Z,2.20
2022-09-06T22:31:35.020Z,1.60
2022-09-06T22:34:05.081Z,2.15
2022-09-06T22:36:32.388Z,1.83
2022-09-06T22:38:59.242Z,1.90
2022-09-06T22:41:28.467Z,2.38
2022-09-06T22:43:55.320Z,2.10
2022-09-06T22:48:49.387Z,1.92
2022-09-06T22:51:16.733Z,2.00
2022-09-06T22:53:43.609Z,1.63
2022-09-06T22:56:10.077Z,1.95
2022-09-06T22:58:36.707Z,2.00
2022-09-06T23:01:12.260Z,2.00
2022-09-06T23:03:39.366Z,1.67
2022-09-06T23:06:06.017Z,2.05
2022-09-06T23:08:34.699Z,1.70
2022-09-06T23:11:06.964Z,1.70
2022-09-06T23:13:34.389Z,2.05
2022-09-06T23:16:08.872Z,2.05
2022-09-06T23:18:35.816Z,1.90
2022-09-06T23:23:38.339Z,1.63
2022-09-06T23:26:16.870Z,1.98
2022-09-06T23:28:43.784Z,1.92
2022-09-06T23:31:12.867Z,2.03
2022-09-06T23:33:40.530Z,1.67
2022-09-06T23:36:09.141Z,1.73
2022-09-06T23:38:37.292Z,1.83
2022-09-06T23:41:04.354Z,2.17
2022-09-06T23:43:31.432Z,1.70
2022-09-06T23:45:58.532Z,1.73
2022-09-06T23:48:25.136Z,1.77
2022-09-06T23:50:52.176Z,1.70
2022-09-06T23:53:18.751Z,1.60
2022-09-06T23:55:45.309Z,1.95
2022-09-06T23:58:12.475Z,1.80
